Time;durP1;ratioP1;P1;durP2;ratioP2;P2;SDS_P1;SDS_P2;PMS_P1;PMS_P2;Temp;Humidity;BMP_temperature;BMP_pressure;BME280_temperature;BME280_humidity;BME280_pressure;Samples;Min_cycle;Max_cycle;Signal;HPM_P1;HPM_P2
2022/04/28 00:01:55;;;;;;;;;;;;;;;;;;5091422;28;20344;-71
2022/04/28 00:04:21;;;;;;;;;;;;;;;;;;5091140;28;19939;-71
2022/04/28 00:09:05;;;;;;;;;;;;;;;;;;5091350;27;19916;-71
2022/04/28 00:11:31;;;;;;;;;;;;;;;;;;5091388;28;20304;-71
2022/04/28 00:13:58;;;;;;;;;;;;;;;;;;5091335;28;19908;-71
2022/04/28 00:16:24;;;;;;;;;;;;;;;;;;5090891;28;20015;-71
2022/04/28 00:18:50;;;;;;;;;;;;;;;;;;5091225;28;20015;-71
2022/04/28 00:23:12;;;;;;;;;;;;;;;;;;5091753;27;19923;-71
2022/04/28 00:27:05;;;;;;;;;;;;;;;;;;5091846;27;19916;-68
2022/04/28 00:32:05;;;;;;;;;;;;;;;;;;5091096;27;19916;-70
2022/04/28 00:34:31;;;;;;;;;;;;;;;;;;5090065;28;19956;-71
2022/04/28 00:39:28;;;;;;;;;;;;;;;;;;5091583;27;19917;-71
2022/04/28 00:42:38;;;;;;;;;;;;;;;;;;5091681;27;20295;-71
2022/04/28 00:45:04;;;;;;;;;;;;;;;;;;5091166;28;19958;-70
2022/04/28 00:52:59;;;;;;;;;;;;;;;;;;5090939;28;19955;-70
2022/04/28 00:55:25;;;;;;;;;;;;;;;;;;5091212;28;19962;-71
2022/04/28 00:57:51;;;;;;;;;;;;;;;;;;5091199;28;19909;-71
2022/04/28 01:00:17;;;;;;;;;;;;;;;;;;5090563;28;19912;-71
2022/04/28 01:02:43;;;;;;;;;;;;;;;;;;5091007;28;20419;-71
2022/04/28 01:06:28;;;;;;;;;;;;;;;;;;5091325;27;20295;-71
2022/04/28 01:08:54;;;;;;;;;;;;;;;;;;5091595;28;19913;-70
2022/04/28 01:11:19;;;;;;;;;;;;;;;;;;5091556;28;19915;-71
2022/04/28 01:14:51;;;;;;;;;;;;;;;;;;5153364;27;20002;-71
2022/04/28 01:17:17;;;;;;;;;;;;;;;;;;5152936;27;19918;-70
2022/04/28 01:19:43;;;;;;;;;;;;;;;;;;5152780;27;19908;-70
2022/04/28 01:22:09;;;;;;;;;;;;;;;;;;5152837;27;19933;-70
2022/04/28 01:24:36;;;;;;;;;;;;;;;;;;5152760;27;19907;-70
2022/04/28 01:27:02;;;;;;;;;;;;;;;;;;5152403;27;19907;-70
2022/04/28 01:33:09;;;;;;;;;;;;;;;;;;5091969;27;19922;-70
2022/04/28 01:35:35;;;;;;;;;;;;;;;;;;5091073;28;19959;-70
2022/04/28 01:39:51;;;;;;;;;;;;;;;;;;5091694;27;19917;-69
2022/04/28 01:43:48;;;;;;;;;;;;;;;;;;5092131;27;19916;-69
2022/04/28 01:46:14;;;;;;;;;;;;;;;;;;5090105;28;19951;-69
2022/04/28 01:48:40;;;;;;;;;;;;;;;;;;5090939;28;19954;-69
2022/04/28 01:55:45;;;;;;;;;;;;;;;;;;5091132;27;19919;-69
2022/04/28 01:58:11;;;;;;;;;;;;;;;;;;5091381;28;19919;-69
2022/04/28 02:00:37;;;;;;;;;;;;;;;;;;5091281;28;19908;-68
2022/04/28 02:04:59;;;;;;;;;;;;;;;;;;5092203;27;19916;-70
2022/04/28 02:07:25;;;;;;;;;;;;;;;;;;5091468;28;20109;-70
2022/04/28 02:09:51;;;;;;;;;;;;;;;;;;5091165;28;19956;-70
2022/04/28 02:12:17;;;;;;;;;;;;;;;;;;5091316;28;20311;-70
2022/04/28 02:16:27;;;;;;;;;;;;;;;;;;5091247;27;19922;-68
2022/04/28 02:18:53;;;;;;;;;;;;;;;;;;5090162;28;19912;-68
2022/04/28 02:22:41;;;;;;;;;;;;;;;;;;5091119;27;19913;-69
2022/04/28 02:25:07;;;;;;;;;;;;;;;;;;5091305;28;19912;-69
2022/04/28 02:27:33;;;;;;;;;;;;;;;;;;5091743;28;20375;-69
2022/04/28 02:29:59;;;;;;;;;;;;;;;;;;5091343;28;19908;-68
2022/04/28 02:33:18;;;;;;;;;;;;;;;;;;5091472;27;20393;-70
2022/04/28 02:37:38;;;;;;;;;;;;;;;;;;5091005;27;19923;-68
2022/04/28 02:42:56;;;;;;;;;;;;;;;;;;5091462;28;20311;-70
2022/04/28 02:45:22;;;;;;;;;;;;;;;;;;5090014;28;19919;-68
2022/04/28 02:47:48;;;;;;;;;;;;;;;;;;5091346;28;19999;-69
2022/04/28 02:50:14;;;;;;;;;;;;;;;;;;5091323;28;19995;-68
2022/04/28 02:52:40;;;;;;;;;;;;;;;;;;5090900;28;19973;-69
2022/04/28 02:59:26;;;;;;;;;;;;;;;;;;5091269;27;19917;-71
2022/04/28 03:01:52;;;;;;;;;;;;;;;;;;5091382;28;20395;-69
2022/04/28 03:04:18;;;;;;;;;;;;;;;;;;5091461;28;19916;-69
2022/04/28 03:13:03;;;;;;;;;;;;;;;;;;5152634;27;20394;-70
2022/04/28 03:15:29;;;;;;;;;;;;;;;;;;5134372;27;19907;-70
2022/04/28 03:17:55;;;;;;;;;;;;;;;;;;5153154;27;19914;-68
2022/04/28 03:20:21;;;;;;;;;;;;;;;;;;5133791;27;19907;-69
2022/04/28 03:25:54;;;;;;;;;;;;;;;;;;5091791;27;20272;-68
2022/04/28 03:28:21;;;;;;;;;;;;;;;;;;5091392;28;20323;-69
2022/04/28 03:32:04;;;;;;;;;;;;;;;;;;5092199;27;19917;-70
2022/04/28 03:34:30;;;;;;;;;;;;;;;;;;5090963;28;19919;-70
2022/04/28 03:39:58;;;;;;;;;;;;;;;;;;5091327;27;19923;-68
2022/04/28 03:42:24;;;;;;;;;;;;;;;;;;5090105;28;19963;-70
2022/04/28 03:44:50;;;;;;;;;;;;;;;;;;5091644;28;19951;-68
2022/04/28 03:47:16;;;;;;;;;;;;;;;;;;5090925;28;19980;-71
2022/04/28 03:51:00;;;;;;;;;;;;;;;;;;5091854;27;19922;-71
2022/04/28 03:53:26;;;;;;;;;;;;;;;;;;5091441;28;19944;-68
2022/04/28 03:57:08;;;;;;;;;;;;;;;;;;5092031;28;19917;-69
2022/04/28 03:59:34;;;;;;;;;;;;;;;;;;5091378;28;19913;-71
2022/04/28 04:05:06;;;;;;;;;;;;;;;;;;5092165;27;19916;-70
2022/04/28 04:07:32;;;;;;;;;;;;;;;;;;5091475;28;19951;-72
2022/04/28 04:09:58;;;;;;;;;;;;;;;;;;5089649;28;19909;-70
2022/04/28 04:12:25;;;;;;;;;;;;;;;;;;5091738;28;19909;-68
2022/04/28 04:14:51;;;;;;;;;;;;;;;;;;5091852;28;19909;-70
2022/04/28 04:17:17;;;;;;;;;;;;;;;;;;5090876;28;19915;-70
2022/04/28 04:22:18;;;;;;;;;;;;;;;;;;5091324;28;19922;-70
2022/04/28 04:24:44;;;;;;;;;;;;;;;;;;5091427;28;19912;-69
2022/04/28 04:28:04;;;;;;;;;;;;;;;;;;5091473;27;20380;-66
2022/04/28 04:33:15;;;;;;;;;;;;;;;;;;5091359;28;19915;-69
2022/04/28 04:35:40;;;;;;;;;;;;;;;;;;5091334;28;19912;-68
2022/04/28 04:38:06;;;;;;;;;;;;;;;;;;5090887;28;19909;-69
2022/04/28 04:40:33;;;;;;;;;;;;;;;;;;5090002;28;19915;-68
2022/04/28 04:42:59;;;;;;;;;;;;;;;;;;5091414;28;19952;-68
2022/04/28 04:45:25;;;;;;;;;;;;;;;;;;5090801;28;19908;-67
2022/04/28 04:49:25;;;;;;;;;;;;;;;;;;5091681;28;19916;-68
2022/04/28 04:51:51;;;;;;;;;;;;;;;;;;5089862;28;19948;-67
2022/04/28 04:54:17;;;;;;;;;;;;;;;;;;5091379;28;19915;-68
2022/04/28 04:56:43;;;;;;;;;;;;;;;;;;5091956;28;19947;-68
2022/04/28 05:03:17;;;;;;;;;;;;;;;;;;5091816;27;20418;-70
2022/04/28 05:05:44;;;;;;;;;;;;;;;;;;5091284;28;20376;-69
2022/04/28 05:08:10;;;;;;;;;;;;;;;;;;5091243;28;19990;-69
2022/04/28 05:13:58;;;;;;;;;;;;;;;;;;5089263;27;19916;-69
2022/04/28 05:18:09;;;;;;;;;;;;;;;;;;5150926;27;20002;-70
2022/04/28 05:20:35;;;;;;;;;;;;;;;;;;5145832;27;19915;-67
2022/04/28 05:24:47;;;;;;;;;;;;;;;;;;5097253;28;19930;-66
2022/04/28 05:27:16;;;;;;;;;;;;;;;;;;5095622;28;19962;-68
2022/04/28 05:29:43;;;;;;;;;;;;;;;;;;5090268;28;19916;-67
2022/04/28 05:32:09;;;;;;;;;;;;;;;;;;5093180;28;19908;-66
2022/04/28 05:38:51;;;;;;;;;;;;;;;;;;5113409;27;20010;-67
2022/04/28 05:41:17;;;;;;;;;;;;;;;;;;5130195;28;19973;-67
2022/04/28 05:45:46;;;;;;;;;;;;;;;;;;5091848;27;20300;-68
2022/04/28 05:48:13;;;;;;;;;;;;;;;;;;5088832;28;19912;-68
2022/04/28 05:50:39;;;;;;;;;;;;;;;;;;5090866;28;20414;-68
2022/04/28 05:53:05;;;;;;;;;;;;;;;;;;5090879;28;20365;-68
2022/04/28 05:57:29;;;;;;;;;;;;;;;;;;5109148;27;19912;-67
2022/04/28 06:02:02;;;;;;;;;;;;;;;;;;5085355;27;19938;-67
2022/04/28 06:08:20;;;;;;;;;;;;;;;;;;5131099;28;20398;-66
2022/04/28 06:10:46;;;;;;;;;;;;;;;;;;5129332;28;19911;-65
2022/04/28 06:13:12;;;;;;;;;;;;;;;;;;5130175;28;20329;-65
2022/04/28 06:16:07;;;;;;;;;;;;;;;;;;4981029;27;4851381;-66
2022/04/28 06:18:33;;;;;;;;;;;;;;;;;;5133699;27;19918;-65
2022/04/28 06:21:05;;;;;;;;;;;;;;;;;;5124589;28;19912;-65
2022/04/28 06:23:31;;;;;;;;;;;;;;;;;;5130339;28;20443;-66
2022/04/28 06:27:13;;;;;;;;;;;;;;;;;;5130095;27;20287;-66
2022/04/28 06:31:56;;;;;;;;;;;;;;;;;;5063962;27;2518233;-66
2022/04/28 06:34:28;;;;;;;;;;;;;;;;;;5151659;27;20379;-65
2022/04/28 06:36:57;;;;;;;;;;;;;;;;;;5132242;27;19904;-66
2022/04/28 06:39:27;;;;;;;;;;;;;;;;;;5115710;27;19907;-66
2022/04/28 06:43:06;;;;;;;;;;;;;;;;;;4545323;27;17545926;-68
2022/04/28 06:47:24;;;;;;;;;;;;;;;;;;5081827;27;2571432;-65
2022/04/28 06:50:08;;;;;;;;;;;;;;;;;;5089834;27;19927;-66
2022/04/28 06:52:34;;;;;;;;;;;;;;;;;;5090910;28;20396;-64
2022/04/28 06:56:14;;;;;;;;;;;;;;;;;;5111026;27;20379;-66
2022/04/28 06:58:41;;;;;;;;;;;;;;;;;;5111292;28;19912;-66
2022/04/28 07:01:19;;;;;;;;;;;;;;;;;;5109799;28;19954;-66
2022/04/28 07:03:45;;;;;;;;;;;;;;;;;;5109201;28;19908;-65
2022/04/28 07:06:11;;;;;;;;;;;;;;;;;;5109966;28;19999;-66
2022/04/28 07:08:39;;;;;;;;;;;;;;;;;;5110901;28;20284;-65
2022/04/28 07:11:13;;;;;;;;;;;;;;;;;;5110587;28;20295;-66
2022/04/28 07:13:44;;;;;;;;;;;;;;;;;;5110792;28;20280;-64
2022/04/28 07:17:50;;;;;;;;;;;;;;;;;;4612554;27;15825663;-64
2022/04/28 07:20:19;;;;;;;;;;;;;;;;;;5172886;27;19915;-65
2022/04/28 07:22:46;;;;;;;;;;;;;;;;;;5172525;27;19919;-65
2022/04/28 07:30:22;;;;;;;;;;;;;;;;;;4272595;27;24803992;-67
2022/04/28 07:37:09;;;;;;;;;;;;;;;;;;4960025;27;5961149;-66
2022/04/28 07:41:49;;;;;;;;;;;;;;;;;;4289552;27;24729964;-66
2022/04/28 07:44:15;;;;;;;;;;;;;;;;;;5171332;27;19915;-67
2022/04/28 07:46:41;;;;;;;;;;;;;;;;;;5151622;27;19918;-66
2022/04/28 07:51:19;;;;;;;;;;;;;;;;;;5085209;28;19922;-66
2022/04/28 07:53:45;;;;;;;;;;;;;;;;;;5073298;28;19917;-67
2022/04/28 07:56:11;;;;;;;;;;;;;;;;;;5069878;28;20371;-66
2022/04/28 07:58:37;;;;;;;;;;;;;;;;;;5069930;28;19908;-66
2022/04/28 08:01:03;;;;;;;;;;;;;;;;;;5068016;28;20366;-66
2022/04/28 08:03:29;;;;;;;;;;;;;;;;;;5070612;28;19928;-67
2022/04/28 08:05:55;;;;;;;;;;;;;;;;;;5079682;28;19912;-66
2022/04/28 08:08:21;;;;;;;;;;;;;;;;;;5081675;28;19924;-67
2022/04/28 08:10:47;;;;;;;;;;;;;;;;;;5089277;28;19981;-66
2022/04/28 08:13:13;;;;;;;;;;;;;;;;;;5090716;28;20386;-67
2022/04/28 08:15:39;;;;;;;;;;;;;;;;;;5089897;28;19947;-66
2022/04/28 08:18:57;;;;;;;;;;;;;;;;;;5090496;28;19913;-67
2022/04/28 08:22:28;;;;;;;;;;;;;;;;;;5072565;27;2263557;-67
2022/04/28 08:24:54;;;;;;;;;;;;;;;;;;5131105;27;19919;-68
2022/04/28 08:27:25;;;;;;;;;;;;;;;;;;5149189;27;19907;-67
2022/04/28 08:29:50;;;;;;;;;;;;;;;;;;5146970;27;19968;-67
2022/04/28 08:32:19;;;;;;;;;;;;;;;;;;5149652;27;19912;-66
2022/04/28 08:34:45;;;;;;;;;;;;;;;;;;5146859;27;19920;-66
2022/04/28 08:37:39;;;;;;;;;;;;;;;;;;5101660;27;19923;-66
2022/04/28 08:40:05;;;;;;;;;;;;;;;;;;5089698;28;19916;-65
2022/04/28 08:42:31;;;;;;;;;;;;;;;;;;5088727;28;19941;-66
2022/04/28 08:48:07;;;;;;;;;;;;;;;;;;5048372;28;19927;-69
2022/04/28 08:54:31;;;;;;;;;;;;;;;;;;5167043;27;19926;-67
2022/04/28 09:01:29;;;;;;;;;;;;;;;;;;5083694;28;19916;-67
2022/04/28 09:06:51;;;;;;;;;;;;;;;;;;5092068;27;20376;-68
2022/04/28 09:09:17;;;;;;;;;;;;;;;;;;5090669;28;19919;-68
2022/04/28 09:11:43;;;;;;;;;;;;;;;;;;5089948;28;19908;-67
2022/04/28 09:15:34;;;;;;;;;;;;;;;;;;5143829;27;20014;-68
2022/04/28 09:18:00;;;;;;;;;;;;;;;;;;5129314;28;19912;-68
2022/04/28 09:20:26;;;;;;;;;;;;;;;;;;5130187;27;20383;-67
2022/04/28 09:22:52;;;;;;;;;;;;;;;;;;5131606;28;19912;-68
2022/04/28 09:25:18;;;;;;;;;;;;;;;;;;5129181;28;20352;-68
2022/04/28 09:27:44;;;;;;;;;;;;;;;;;;5109754;28;19919;-69
2022/04/28 09:30:10;;;;;;;;;;;;;;;;;;5107771;28;20358;-68
2022/04/28 09:32:36;;;;;;;;;;;;;;;;;;5121607;28;19952;-68
2022/04/28 09:36:08;;;;;;;;;;;;;;;;;;5120997;27;19916;-67
2022/04/28 09:38:34;;;;;;;;;;;;;;;;;;5122337;28;19920;-68
2022/04/28 09:45:07;;;;;;;;;;;;;;;;;;5086022;27;19917;-67
2022/04/28 09:47:33;;;;;;;;;;;;;;;;;;5088234;28;19958;-67
2022/04/28 09:49:59;;;;;;;;;;;;;;;;;;5089492;28;19936;-70
2022/04/28 09:52:25;;;;;;;;;;;;;;;;;;5075622;28;19932;-68
2022/04/28 09:56:20;;;;;;;;;;;;;;;;;;5091115;27;19923;-66
2022/04/28 09:58:46;;;;;;;;;;;;;;;;;;5089936;28;19943;-67
2022/04/28 10:02:50;;;;;;;;;;;;;;;;;;5088582;27;19916;-68
2022/04/28 10:05:16;;;;;;;;;;;;;;;;;;5088370;28;20369;-67
2022/04/28 10:07:42;;;;;;;;;;;;;;;;;;5090449;28;19915;-67
2022/04/28 10:10:08;;;;;;;;;;;;;;;;;;5089402;28;19944;-68
2022/04/28 10:13:16;;;;;;;;;;;;;;;;;;5089753;27;19923;-70
2022/04/28 10:18:01;;;;;;;;;;;;;;;;;;5090976;27;19939;-66
2022/04/28 10:20:28;;;;;;;;;;;;;;;;;;5089387;28;19912;-67
2022/04/28 10:22:54;;;;;;;;;;;;;;;;;;5088821;28;19908;-65
2022/04/28 10:33:34;;;;;;;;;;;;;;;;;;5092916;28;20327;-67
2022/04/28 10:36:01;;;;;;;;;;;;;;;;;;5089501;28;20460;-66
2022/04/28 10:38:30;;;;;;;;;;;;;;;;;;5091404;28;20485;-66
2022/04/28 10:40:56;;;;;;;;;;;;;;;;;;5091867;28;19908;-68
2022/04/28 10:47:42;;;;;;;;;;;;;;;;;;5090250;27;19939;-66
2022/04/28 10:50:08;;;;;;;;;;;;;;;;;;5090063;28;20340;-67
2022/04/28 10:52:34;;;;;;;;;;;;;;;;;;5090005;28;19940;-67
2022/04/28 10:55:01;;;;;;;;;;;;;;;;;;5091007;28;19908;-67
2022/04/28 10:57:28;;;;;;;;;;;;;;;;;;5090599;28;19908;-67
2022/04/28 10:59:54;;;;;;;;;;;;;;;;;;5094192;28;19908;-68
2022/04/28 11:02:20;;;;;;;;;;;;;;;;;;5105412;28;19908;-68
2022/04/28 11:04:46;;;;;;;;;;;;;;;;;;5091380;28;19962;-67
2022/04/28 11:07:12;;;;;;;;;;;;;;;;;;5094085;28;19920;-68
2022/04/28 11:09:38;;;;;;;;;;;;;;;;;;5111596;28;19933;-67
2022/04/28 11:14:00;;;;;;;;;;;;;;;;;;5091055;28;19921;-66
2022/04/28 11:16:26;;;;;;;;;;;;;;;;;;5099024;28;20309;-66
2022/04/28 11:18:53;;;;;;;;;;;;;;;;;;5090009;28;19908;-66
2022/04/28 11:21:19;;;;;;;;;;;;;;;;;;5090731;28;19916;-68
2022/04/28 11:23:45;;;;;;;;;;;;;;;;;;5090875;28;20269;-67
2022/04/28 11:26:11;;;;;;;;;;;;;;;;;;5090611;28;19969;-67
2022/04/28 11:28:38;;;;;;;;;;;;;;;;;;5089239;28;19916;-65
2022/04/28 11:31:04;;;;;;;;;;;;;;;;;;5089009;28;19908;-66
2022/04/28 11:33:30;;;;;;;;;;;;;;;;;;5098026;28;19916;-65
2022/04/28 11:35:56;;;;;;;;;;;;;;;;;;5109912;28;19908;-67
2022/04/28 11:38:22;;;;;;;;;;;;;;;;;;5109563;28;19908;-67
2022/04/28 11:40:48;;;;;;;;;;;;;;;;;;5109891;28;19908;-65
2022/04/28 11:43:14;;;;;;;;;;;;;;;;;;5110937;28;20003;-66
2022/04/28 11:45:42;;;;;;;;;;;;;;;;;;5109395;28;19915;-65
2022/04/28 11:48:08;;;;;;;;;;;;;;;;;;5111106;28;19915;-67
2022/04/28 11:50:37;;;;;;;;;;;;;;;;;;5110994;28;19908;-66
2022/04/28 11:53:06;;;;;;;;;;;;;;;;;;5108991;28;19916;-66
2022/04/28 11:55:35;;;;;;;;;;;;;;;;;;5110448;28;19908;-67
2022/04/28 11:58:01;;;;;;;;;;;;;;;;;;5109484;28;19915;-68
2022/04/28 12:00:27;;;;;;;;;;;;;;;;;;5109208;28;19908;-68
2022/04/28 12:02:53;;;;;;;;;;;;;;;;;;5110816;28;20280;-66
2022/04/28 12:06:55;;;;;;;;;;;;;;;;;;5152504;27;20374;-68
2022/04/28 12:14:50;;;;;;;;;;;;;;;;;;5152351;27;20010;-67
2022/04/28 12:20:02;;;;;;;;;;;;;;;;;;5152609;27;19913;-66
2022/04/28 12:22:28;;;;;;;;;;;;;;;;;;5152054;27;19990;-65
2022/04/28 12:24:54;;;;;;;;;;;;;;;;;;5152283;27;19919;-65
2022/04/28 12:27:21;;;;;;;;;;;;;;;;;;5133802;27;19908;-64
2022/04/28 12:29:55;;;;;;;;;;;;;;;;;;5150714;27;20406;-66
2022/04/28 12:32:25;;;;;;;;;;;;;;;;;;5152397;27;19960;-65
2022/04/28 12:34:51;;;;;;;;;;;;;;;;;;5151863;27;19914;-66
2022/04/28 12:37:17;;;;;;;;;;;;;;;;;;5152143;27;19911;-66
2022/04/28 12:39:43;;;;;;;;;;;;;;;;;;5151995;27;19933;-67
2022/04/28 12:42:09;;;;;;;;;;;;;;;;;;5151175;27;19915;-64
2022/04/28 12:44:35;;;;;;;;;;;;;;;;;;5151965;27;19914;-65
2022/04/28 12:47:02;;;;;;;;;;;;;;;;;;5151716;27;19907;-68
2022/04/28 12:49:28;;;;;;;;;;;;;;;;;;5149682;27;19908;-67
2022/04/28 12:51:54;;;;;;;;;;;;;;;;;;5150329;27;19967;-68
2022/04/28 12:54:20;;;;;;;;;;;;;;;;;;5152084;27;19907;-68
2022/04/28 12:56:46;;;;;;;;;;;;;;;;;;5131882;27;19908;-68
2022/04/28 12:59:13;;;;;;;;;;;;;;;;;;5150521;27;20382;-68
2022/04/28 13:01:39;;;;;;;;;;;;;;;;;;5149794;27;20345;-68
2022/04/28 13:04:06;;;;;;;6.00;3.03;;;;;;;;;;5149376;27;19908;-68
2022/04/28 13:06:35;;;;;;;8.85;3.33;;;;;;;;;;5151131;27;20061;-67
2022/04/28 13:09:02;;;;;;;11.20;3.42;;;;;;;;;;5151265;27;20015;-67
2022/04/28 13:11:32;;;;;;;9.25;3.53;;;;;;;;;;5149155;27;20039;-68
2022/04/28 13:14:00;;;;;;;7.40;3.70;;;;;;;;;;5150116;27;20057;-67
2022/04/28 13:16:27;;;;;;;12.70;3.67;;;;;;;;;;5147587;27;20046;-68
2022/04/28 13:18:53;;;;;;;5.32;3.22;;;;;;;;;;5136963;27;20035;-67
2022/04/28 13:21:20;;;;;;;6.30;3.28;;;;;;;;;;5137231;27;20094;-68
2022/04/28 13:23:47;;;;;;;5.43;3.17;;;;;;;;;;5135475;27;20076;-68
2022/04/28 13:26:14;;;;;;;6.53;3.22;;;;;;;;;;5137013;27;20045;-67
2022/04/28 13:28:40;;;;;;;5.88;3.13;;;;;;;;;;5137142;27;20023;-67
2022/04/28 13:31:15;;;;;;;5.82;3.15;;;;;;;;;;5136510;27;20015;-67
2022/04/28 13:33:42;;;;;;;6.07;3.47;;;;;;;;;;5136971;27;20042;-65
2022/04/28 13:36:08;;;;;;;5.38;3.20;;;;;;;;;;5136945;27;20020;-67
2022/04/28 13:38:35;;;;;;;4.88;2.70;;;;;;;;;;5136554;27;20387;-66
2022/04/28 13:41:02;;;;;;;8.27;3.70;;;;;;;;;;5135494;27;20022;-68
2022/04/28 13:43:28;;;;;;;6.28;2.83;;;;;;;;;;5136405;27;20375;-68
2022/04/28 13:45:55;;;;;;;11.07;4.05;;;;;;;;;;5134834;27;20023;-67
2022/04/28 13:48:21;;;;;;;6.40;3.60;;;;;;;;;;5136741;27;20025;-67
2022/04/28 13:50:48;;;;;;;5.68;3.30;;;;;;;;;;5136141;27;20403;-68
2022/04/28 13:53:16;;;;;;;7.80;3.47;;;;;;;;;;5135852;27;20030;-68
2022/04/28 13:55:42;;;;;;;7.85;3.60;;;;;;;;;;5136673;27;20023;-66
2022/04/28 13:58:10;;;;;;;7.72;3.70;;;;;;;;;;5136562;27;20019;-68
2022/04/28 14:00:36;;;;;;;8.32;4.20;;;;;;;;;;5134787;27;20027;-67
2022/04/28 14:03:09;;;;;;;8.60;3.28;;;;;;;;;;5135028;27;20023;-67
2022/04/28 14:05:35;;;;;;;;;;;;;;;;;;5135230;27;20052;-68
2022/04/28 14:08:01;;;;;;;7.88;3.42;;;;;;;;;;5136041;27;19910;-67
2022/04/28 14:10:27;;;;;;;5.68;3.35;;;;;;;;;;5135032;27;20023;-66
2022/04/28 14:12:53;;;;;;;6.40;3.85;;;;;;;;;;5136269;27;20011;-66
2022/04/28 14:15:21;;;;;;;7.30;3.10;;;;;;;;;;5136038;27;20080;-66
2022/04/28 14:17:48;;;;;;;6.78;3.17;;;;;;;;;;5136239;27;20019;-67
2022/04/28 14:20:15;;;;;;;7.18;3.83;;;;;;;;;;5135742;27;20399;-67
2022/04/28 14:22:42;;;;;;;7.82;3.75;;;;;;;;;;5136214;27;20023;-66
2022/04/28 14:25:08;;;;;;;10.20;4.18;;;;;;;;;;5136039;27;20023;-66
2022/04/28 14:27:34;;;;;;;9.40;4.65;;;;;;;;;;5135507;27;20030;-66
2022/04/28 14:30:02;;;;;;;9.32;4.47;;;;;;;;;;5133735;27;20026;-67
2022/04/28 14:32:29;;;;;;;8.70;4.45;;;;;;;;;;5134491;27;20023;-67
2022/04/28 14:34:56;;;;;;;9.98;4.30;;;;;;;;;;5135314;27;20083;-67
2022/04/28 14:37:22;;;;;;;15.85;4.35;;;;;;;;;;5136168;27;20019;-66
2022/04/28 14:39:48;;;;;;;8.05;4.40;;;;;;;;;;5135742;27;20019;-67
2022/04/28 14:42:15;;;;;;;12.40;5.13;;;;;;;;;;5135409;27;20023;-68
2022/04/28 14:44:42;;;;;;;9.18;4.20;;;;;;;;;;5135555;27;20535;-68
2022/04/28 14:47:08;;;;;;;6.95;4.18;;;;;;;;;;5135607;27;20027;-68
2022/04/28 14:52:25;;;;;;;10.05;4.68;;;;;;;;;;5135614;27;20038;-69
2022/04/28 14:54:53;;;;;;;5.75;3.80;;;;;;;;;;5135540;27;20395;-68
2022/04/28 14:57:20;;;;;;;8.00;3.95;;;;;;;;;;5135118;27;20062;-68
2022/04/28 14:59:46;;;;;;;10.55;4.90;;;;;;;;;;5135446;27;20072;-68
2022/04/28 15:02:13;;;;;;;8.38;4.40;;;;;;;;;;5133638;27;20490;-69
2022/04/28 15:04:39;;;;;;;11.35;4.55;;;;;;;;;;5135016;27;20029;-68
2022/04/28 15:07:05;;;;;;;11.30;4.78;;;;;;;;;;5135399;27;20055;-68
2022/04/28 15:09:32;;;;;;;8.45;4.72;;;;;;;;;;5134882;27;20019;-68
2022/04/28 15:11:58;;;;;;;8.27;4.75;;;;;;;;;;5135189;27;20395;-67
2022/04/28 15:14:24;;;;;;;8.10;4.80;;;;;;;;;;5135236;27;20536;-67
2022/04/28 15:16:51;;;;;;;11.30;5.13;;;;;;;;;;5134882;27;20098;-69
2022/04/28 15:19:17;;;;;;;13.05;4.40;;;;;;;;;;5135317;27;20471;-67
2022/04/28 15:21:44;;;;;;;6.10;3.78;;;;;;;;;;5134979;27;20027;-68
2022/04/28 15:24:10;;;;;;;7.45;4.55;;;;;;;;;;5134522;27;20076;-67
2022/04/28 15:26:36;;;;;;;7.38;4.18;;;;;;;;;;5134743;27;20039;-68
2022/04/28 15:29:03;;;;;;;7.43;4.65;;;;;;;;;;5134998;27;20114;-67
2022/04/28 15:31:37;;;;;;;7.85;4.18;;;;;;;;;;5134428;27;20023;-68
2022/04/28 15:34:03;;;;;;;8.63;4.20;;;;;;;;;;5133492;27;20092;-69
2022/04/28 15:36:31;;;;;;;7.50;4.55;;;;;;;;;;5133529;27;20023;-69
2022/04/28 15:38:57;;;;;;;8.45;4.20;;;;;;;;;;5134405;27;20023;-68
2022/04/28 15:41:23;;;;;;;8.52;4.20;;;;;;;;;;5133207;27;20084;-68
2022/04/28 15:43:50;;;;;;;9.80;4.32;;;;;;;;;;5134556;27;20017;-68
2022/04/28 15:46:16;;;;;;;7.75;4.30;;;;;;;;;;5134275;27;20031;-69
2022/04/28 15:48:42;;;;;;;8.63;4.38;;;;;;;;;;5134440;27;20502;-68
2022/04/28 15:51:08;;;;;;;7.90;4.80;;;;;;;;;;5134517;27;20034;-68
2022/04/28 15:53:35;;;;;;;8.85;4.35;;;;;;;;;;5132877;27;20068;-69
2022/04/28 15:56:02;;;;;;;6.75;3.90;;;;;;;;;;5133173;27;20401;-68
2022/04/28 15:58:28;;;;;;;8.30;4.32;;;;;;;;;;5134617;27;20022;-68
2022/04/28 16:00:54;;;;;;;9.70;4.35;;;;;;;;;;5133149;27;20051;-68
2022/04/28 16:03:20;;;;;;;7.47;4.15;;;;;;;;;;5134493;27;20038;-67
2022/04/28 16:05:47;;;;;;;8.52;3.88;;;;;;;;;;5133790;28;20043;-68
2022/04/28 16:08:13;;;;;;;8.98;4.20;;;;;;;;;;5134391;28;20023;-68
2022/04/28 16:15:23;;;;;;;6.65;3.65;;;;;;;;;;5111557;27;20489;-68
2022/04/28 16:17:49;;;;;;;7.95;3.97;;;;;;;;;;5111371;28;20047;-69
2022/04/28 16:20:17;;;;;;;8.52;4.45;;;;;;;;;;5109517;28;20367;-68
2022/04/28 16:22:43;;;;;;;;;;;;;;;;;;5110346;28;20024;-68
2022/04/28 16:25:10;;;;;;;;;;;;;;;;;;5111558;28;20304;-68
2022/04/28 16:29:57;;;;;;;;;;;;;;;;;;5091743;27;19989;-68
2022/04/28 16:34:09;;;;;;;;;;;;;;;;;;5111545;27;20425;-67
2022/04/28 16:36:35;;;;;;;;;;;;;;;;;;5111829;28;19912;-69
2022/04/28 16:39:01;;;;;;;;;;;;;;;;;;5111939;28;20326;-68
2022/04/28 16:41:27;;;;;;;;;;;;;;;;;;5110038;28;19916;-67
2022/04/28 16:43:53;;;;;;;;;;;;;;;;;;5110236;28;19931;-69
2022/04/28 16:47:43;;;;;;;;;;;;;;;;;;5091498;27;19916;-69
2022/04/28 16:50:09;;;;;;;;;;;;;;;;;;5091297;28;19952;-69
2022/04/28 16:52:35;;;;;;;;;;;;;;;;;;5090124;28;19944;-69
2022/04/28 16:56:27;;;;;;;;;;;;;;;;;;5091248;28;19916;-69
2022/04/28 16:58:53;;;;;;;;;;;;;;;;;;5091379;28;19954;-69
2022/04/28 17:05:39;;;;;;;;;;;;;;;;;;5111712;28;20387;-67
2022/04/28 17:08:06;;;;;;;;;;;;;;;;;;5111823;28;20306;-67
2022/04/28 17:10:51;;;;;;;;;;;;;;;;;;5090894;27;19913;-68
2022/04/28 17:13:17;;;;;;;;;;;;;;;;;;5091265;28;20430;-68
2022/04/28 17:15:43;;;;;;;;;;;;;;;;;;5091097;28;19915;-68
2022/04/28 17:18:09;;;;;;;;;;;;;;;;;;5090794;28;19954;-68
2022/04/28 17:20:36;;;;;;;;;;;;;;;;;;5091237;28;19908;-68
2022/04/28 17:23:16;;;;;;;;;;;;;;;;;;5091180;28;19917;-68
2022/04/28 17:25:42;;;;;;;;;;;;;;;;;;5091275;28;20002;-68
2022/04/28 17:28:12;;;;;;;;;;;;;;;;;;5091132;28;19912;-68
2022/04/28 17:32:53;;;;;;;;;;;;;;;;;;5091887;28;20384;-70
2022/04/28 17:38:45;;;;;;;;;;;;;;;;;;5152583;27;20018;-69
2022/04/28 17:41:11;;;;;;;;;;;;;;;;;;5152850;27;19923;-68
2022/04/28 17:43:39;;;;;;;;;;;;;;;;;;5152900;27;20303;-69
2022/04/28 17:46:05;;;;;;;;;;;;;;;;;;5152451;27;19913;-68
2022/04/28 17:50:16;;;;;;;;;;;;;;;;;;5091738;27;19916;-68
2022/04/28 17:52:42;;;;;;;;;;;;;;;;;;5091007;28;20380;-69
2022/04/28 18:00:32;;;;;;;;;;;;;;;;;;5091537;28;19919;-68
2022/04/28 18:02:59;;;;;;;;;;;;;;;;;;5091698;28;20018;-68
2022/04/28 18:05:25;;;;;;;;;;;;;;;;;;5091023;28;19991;-69
2022/04/28 18:07:51;;;;;;;;;;;;;;;;;;5091284;28;19954;-68
2022/04/28 18:10:57;;;;;;;;;;;;;;;;;;5092177;27;19916;-68
2022/04/28 18:13:23;;;;;;;;;;;;;;;;;;5089724;28;20295;-67
2022/04/28 18:15:49;;;;;;;;;;;;;;;;;;5090031;28;20011;-68
2022/04/28 18:18:15;;;;;;;;;;;;;;;;;;5091288;28;19944;-68
2022/04/28 18:22:54;;;;;;;;;;;;;;;;;;5112532;27;19922;-68
2022/04/28 18:26:36;;;;;;;;;;;;;;;;;;5091724;27;19913;-68
2022/04/28 18:29:03;;;;;;;;;;;;;;;;;;5091415;28;19919;-67
2022/04/28 18:31:29;;;;;;;;;;;;;;;;;;5091296;28;20276;-68
2022/04/28 18:46:50;;;;;;;;;;;;;;;;;;5112202;27;20416;-69
2022/04/28 18:51:53;;;;;;;;;;;;;;;;;;5111821;27;19918;-68
2022/04/28 18:54:20;;;;;;;;;;;;;;;;;;5111292;28;20311;-67
2022/04/28 18:56:46;;;;;;;;;;;;;;;;;;5111683;28;19937;-69
2022/04/28 18:59:11;;;;;;;;;;;;;;;;;;5109467;28;19987;-68
2022/04/28 19:02:09;;;;;;;;;;;;;;;;;;5091038;27;19916;-68
2022/04/28 19:04:35;;;;;;;;;;;;;;;;;;5091331;28;19912;-68
2022/04/28 19:07:01;;;;;;;;;;;;;;;;;;5089967;28;19914;-67
2022/04/28 19:10:07;;;;;;;;;;;;;;;;;;5091016;27;20399;-67
2022/04/28 19:16:16;;;;;;;;;;;;;;;;;;5090965;27;19916;-68
2022/04/28 19:21:44;;;;;;;;;;;;;;;;;;5091397;27;20274;-68
2022/04/28 19:24:10;;;;;;;;;;;;;;;;;;5090852;28;19912;-68
2022/04/28 19:27:35;;;;;;;;;;;;;;;;;;5090625;27;19917;-69
2022/04/28 19:33:07;;;;;;;;;;;;;;;;;;5089249;27;19916;-68
2022/04/28 19:37:28;;;;;;;;;;;;;;;;;;5088818;27;19927;-68
2022/04/28 19:39:54;;;;;;;;;;;;;;;;;;5089347;28;19966;-67
2022/04/28 19:43:13;;;;;;;;;;;;;;;;;;5089988;28;19922;-68
2022/04/28 19:45:39;;;;;;;;;;;;;;;;;;5091003;28;19912;-68
2022/04/28 19:48:05;;;;;;;;;;;;;;;;;;5091549;28;19909;-68
2022/04/28 19:51:39;;;;;;;;;;;;;;;;;;5091412;28;19923;-68
2022/04/28 19:56:58;;;;;;;;;;;;;;;;;;5091696;28;19923;-69
2022/04/28 20:03:34;;;;;;;;;;;;;;;;;;5112071;27;19942;-68
2022/04/28 20:08:09;;;;;;;;;;;;;;;;;;5092233;28;19916;-69
2022/04/28 20:10:35;;;;;;;;;;;;;;;;;;5090061;28;20360;-69
2022/04/28 20:13:01;;;;;;;;;;;;;;;;;;5090950;28;19983;-69
2022/04/28 20:20:07;;;;;;;;;;;;;;;;;;5091345;27;20392;-68
2022/04/28 20:22:33;;;;;;;;;;;;;;;;;;5091410;28;19912;-68
2022/04/28 20:25:00;;;;;;;;;;;;;;;;;;5091578;28;20284;-68
2022/04/28 20:29:36;;;;;;;;;;;;;;;;;;5112486;27;19922;-69
2022/04/28 20:32:02;;;;;;;;;;;;;;;;;;5111686;28;19955;-69